sensor_id;sensor_type;location;lat;lon;timestamp;P1;durP1;ratioP1;P2;durP2;ratioP2
14241;SDS011;7205;50.864;12.766;2022-12-13T00:01:37;7.90;;;5.93;;
14241;SDS011;7205;50.864;12.766;2022-12-13T00:04:05;7.30;;;5.47;;
14241;SDS011;7205;50.864;12.766;2022-12-13T00:06:34;9.57;;;6.07;;
14241;SDS011;7205;50.864;12.766;2022-12-13T00:09:02;7.83;;;5.60;;
14241;SDS011;7205;50.864;12.766;2022-12-13T00:11:30;7.67;;;5.77;;
14241;SDS011;7205;50.864;12.766;2022-12-13T00:13:58;8.77;;;6.57;;
14241;SDS011;7205;50.864;12.766;2022-12-13T00:16:25;10.10;;;6.60;;
14241;SDS011;7205;50.864;12.766;2022-12-13T00:18:52;7.43;;;5.90;;
14241;SDS011;7205;50.864;12.766;2022-12-13T00:21:22;8.83;;;6.83;;
14241;SDS011;7205;50.864;12.766;2022-12-13T00:23:52;10.37;;;6.83;;
14241;SDS011;7205;50.864;12.766;2022-12-13T00:26:21;10.37;;;7.73;;
14241;SDS011;7205;50.864;12.766;2022-12-13T00:28:49;11.40;;;8.27;;
14241;SDS011;7205;50.864;12.766;2022-12-13T00:31:17;10.73;;;7.50;;
14241;SDS011;7205;50.864;12.766;2022-12-13T00:33:45;9.77;;;7.57;;
14241;SDS011;7205;50.864;12.766;2022-12-13T00:36:13;11.87;;;8.30;;
14241;SDS011;7205;50.864;12.766;2022-12-13T00:38:40;12.03;;;7.77;;
14241;SDS011;7205;50.864;12.766;2022-12-13T00:41:10;10.67;;;7.60;;
14241;SDS011;7205;50.864;12.766;2022-12-13T00:43:37;11.27;;;7.27;;
14241;SDS011;7205;50.864;12.766;2022-12-13T00:46:05;9.67;;;6.97;;
14241;SDS011;7205;50.864;12.766;2022-12-13T00:48:33;13.00;;;8.17;;
14241;SDS011;7205;50.864;12.766;2022-12-13T00:51:04;9.97;;;7.43;;
14241;SDS011;7205;50.864;12.766;2022-12-13T00:53:31;10.73;;;7.80;;
14241;SDS011;7205;50.864;12.766;2022-12-13T00:55:58;10.40;;;7.50;;
14241;SDS011;7205;50.864;12.766;2022-12-13T00:58:26;12.47;;;7.53;;
14241;SDS011;7205;50.864;12.766;2022-12-13T01:01:00;11.07;;;7.60;;
14241;SDS011;7205;50.864;12.766;2022-12-13T01:03:28;10.93;;;7.53;;
14241;SDS011;7205;50.864;12.766;2022-12-13T01:05:54;9.10;;;7.23;;
14241;SDS011;7205;50.864;12.766;2022-12-13T01:08:21;11.80;;;7.60;;
14241;SDS011;7205;50.864;12.766;2022-12-13T01:10:48;9.20;;;6.80;;
14241;SDS011;7205;50.864;12.766;2022-12-13T01:13:15;8.90;;;7.13;;
14241;SDS011;7205;50.864;12.766;2022-12-13T01:15:43;13.27;;;7.13;;
14241;SDS011;7205;50.864;12.766;2022-12-13T01:18:12;10.10;;;7.00;;
14241;SDS011;7205;50.864;12.766;2022-12-13T01:20:42;12.37;;;8.00;;
14241;SDS011;7205;50.864;12.766;2022-12-13T01:23:09;9.47;;;7.13;;
14241;SDS011;7205;50.864;12.766;2022-12-13T01:25:36;10.37;;;6.87;;
14241;SDS011;7205;50.864;12.766;2022-12-13T01:28:03;11.10;;;7.30;;
14241;SDS011;7205;50.864;12.766;2022-12-13T01:30:30;9.10;;;6.93;;
14241;SDS011;7205;50.864;12.766;2022-12-13T01:32:58;9.17;;;6.83;;
14241;SDS011;7205;50.864;12.766;2022-12-13T01:35:25;9.03;;;6.60;;
14241;SDS011;7205;50.864;12.766;2022-12-13T01:37:52;8.87;;;7.03;;
14241;SDS011;7205;50.864;12.766;2022-12-13T01:40:19;10.43;;;6.50;;
14241;SDS011;7205;50.864;12.766;2022-12-13T01:42:46;9.00;;;6.37;;
14241;SDS011;7205;50.864;12.766;2022-12-13T01:45:18;9.17;;;6.50;;
14241;SDS011;7205;50.864;12.766;2022-12-13T01:47:49;9.07;;;6.70;;
14241;SDS011;7205;50.864;12.766;2022-12-13T01:50:20;8.93;;;6.50;;
14241;SDS011;7205;50.864;12.766;2022-12-13T01:52:50;7.93;;;6.33;;
14241;SDS011;7205;50.864;12.766;2022-12-13T01:55:20;8.50;;;6.43;;
14241;SDS011;7205;50.864;12.766;2022-12-13T01:57:50;8.00;;;6.07;;
14241;SDS011;7205;50.864;12.766;2022-12-13T02:00:19;6.87;;;5.80;;
14241;SDS011;7205;50.864;12.766;2022-12-13T02:02:45;7.33;;;5.63;;
14241;SDS011;7205;50.864;12.766;2022-12-13T02:05:15;9.27;;;6.53;;
14241;SDS011;7205;50.864;12.766;2022-12-13T02:07:48;8.07;;;5.40;;
14241;SDS011;7205;50.864;12.766;2022-12-13T02:10:15;7.53;;;5.77;;
14241;SDS011;7205;50.864;12.766;2022-12-13T02:12:43;8.23;;;5.87;;
14241;SDS011;7205;50.864;12.766;2022-12-13T02:15:11;7.10;;;5.47;;
14241;SDS011;7205;50.864;12.766;2022-12-13T02:17:45;7.53;;;5.57;;
14241;SDS011;7205;50.864;12.766;2022-12-13T02:20:34;9.73;;;6.03;;
14241;SDS011;7205;50.864;12.766;2022-12-13T02:23:23;7.23;;;6.00;;
14241;SDS011;7205;50.864;12.766;2022-12-13T02:26:06;7.20;;;6.00;;
14241;SDS011;7205;50.864;12.766;2022-12-13T02:28:56;7.07;;;5.77;;
14241;SDS011;7205;50.864;12.766;2022-12-13T02:31:36;6.57;;;5.03;;
14241;SDS011;7205;50.864;12.766;2022-12-13T02:34:10;6.90;;;5.43;;
14241;SDS011;7205;50.864;12.766;2022-12-13T02:36:46;7.87;;;5.40;;
14241;SDS011;7205;50.864;12.766;2022-12-13T02:39:21;6.40;;;5.17;;
14241;SDS011;7205;50.864;12.766;2022-12-13T02:41:53;8.77;;;5.87;;
14241;SDS011;7205;50.864;12.766;2022-12-13T02:44:53;7.33;;;5.53;;
14241;SDS011;7205;50.864;12.766;2022-12-13T02:47:52;8.10;;;5.90;;
14241;SDS011;7205;50.864;12.766;2022-12-13T02:50:23;7.13;;;5.67;;
14241;SDS011;7205;50.864;12.766;2022-12-13T02:52:53;7.00;;;5.67;;
14241;SDS011;7205;50.864;12.766;2022-12-13T02:55:20;7.37;;;5.50;;
14241;SDS011;7205;50.864;12.766;2022-12-13T02:57:49;6.63;;;5.37;;
14241;SDS011;7205;50.864;12.766;2022-12-13T03:00:20;7.27;;;5.40;;
14241;SDS011;7205;50.864;12.766;2022-12-13T03:03:18;7.10;;;5.30;;
14241;SDS011;7205;50.864;12.766;2022-12-13T03:06:02;8.87;;;5.80;;
14241;SDS011;7205;50.864;12.766;2022-12-13T03:09:00;7.37;;;5.60;;
14241;SDS011;7205;50.864;12.766;2022-12-13T03:11:38;6.90;;;5.23;;
14241;SDS011;7205;50.864;12.766;2022-12-13T03:14:35;6.97;;;5.43;;
14241;SDS011;7205;50.864;12.766;2022-12-13T03:17:07;5.83;;;5.10;;
14241;SDS011;7205;50.864;12.766;2022-12-13T03:19:37;7.63;;;5.60;;
14241;SDS011;7205;50.864;12.766;2022-12-13T03:22:04;6.10;;;5.10;;
14241;SDS011;7205;50.864;12.766;2022-12-13T03:24:32;7.40;;;5.27;;
14241;SDS011;7205;50.864;12.766;2022-12-13T03:26:59;6.27;;;4.90;;
14241;SDS011;7205;50.864;12.766;2022-12-13T03:29:26;6.40;;;5.30;;
14241;SDS011;7205;50.864;12.766;2022-12-13T03:31:52;6.77;;;5.67;;
14241;SDS011;7205;50.864;12.766;2022-12-13T03:34:20;8.20;;;5.50;;
14241;SDS011;7205;50.864;12.766;2022-12-13T03:36:48;6.50;;;5.00;;
14241;SDS011;7205;50.864;12.766;2022-12-13T03:39:15;7.83;;;5.70;;
14241;SDS011;7205;50.864;12.766;2022-12-13T03:41:42;6.07;;;5.47;;
14241;SDS011;7205;50.864;12.766;2022-12-13T03:44:09;6.73;;;5.50;;
14241;SDS011;7205;50.864;12.766;2022-12-13T03:46:36;5.37;;;4.70;;
14241;SDS011;7205;50.864;12.766;2022-12-13T03:49:04;5.90;;;5.27;;
14241;SDS011;7205;50.864;12.766;2022-12-13T03:51:30;7.13;;;5.13;;
14241;SDS011;7205;50.864;12.766;2022-12-13T03:53:59;7.13;;;5.07;;
14241;SDS011;7205;50.864;12.766;2022-12-13T03:56:26;8.97;;;5.57;;
14241;SDS011;7205;50.864;12.766;2022-12-13T03:58:53;6.07;;;4.90;;
14241;SDS011;7205;50.864;12.766;2022-12-13T04:01:19;7.13;;;5.33;;
14241;SDS011;7205;50.864;12.766;2022-12-13T04:03:47;6.30;;;5.43;;
14241;SDS011;7205;50.864;12.766;2022-12-13T04:06:14;5.93;;;4.97;;
14241;SDS011;7205;50.864;12.766;2022-12-13T04:08:41;8.43;;;5.47;;
14241;SDS011;7205;50.864;12.766;2022-12-13T04:11:09;7.33;;;5.43;;
14241;SDS011;7205;50.864;12.766;2022-12-13T04:13:53;6.23;;;5.00;;
14241;SDS011;7205;50.864;12.766;2022-12-13T04:16:21;5.57;;;4.93;;
14241;SDS011;7205;50.864;12.766;2022-12-13T04:18:48;7.70;;;5.30;;
14241;SDS011;7205;50.864;12.766;2022-12-13T04:21:15;7.23;;;5.10;;
14241;SDS011;7205;50.864;12.766;2022-12-13T04:23:42;6.83;;;4.80;;
14241;SDS011;7205;50.864;12.766;2022-12-13T04:26:10;6.33;;;4.23;;
14241;SDS011;7205;50.864;12.766;2022-12-13T04:28:37;5.87;;;4.87;;
14241;SDS011;7205;50.864;12.766;2022-12-13T04:31:04;5.13;;;4.57;;
14241;SDS011;7205;50.864;12.766;2022-12-13T04:33:31;5.40;;;4.50;;
14241;SDS011;7205;50.864;12.766;2022-12-13T04:35:58;6.27;;;4.37;;
14241;SDS011;7205;50.864;12.766;2022-12-13T04:38:25;7.27;;;4.60;;
14241;SDS011;7205;50.864;12.766;2022-12-13T04:40:52;8.20;;;5.27;;
14241;SDS011;7205;50.864;12.766;2022-12-13T04:43:20;6.30;;;4.73;;
14241;SDS011;7205;50.864;12.766;2022-12-13T04:45:47;5.57;;;4.43;;
14241;SDS011;7205;50.864;12.766;2022-12-13T04:48:14;6.83;;;5.00;;
14241;SDS011;7205;50.864;12.766;2022-12-13T04:50:41;6.87;;;4.90;;
14241;SDS011;7205;50.864;12.766;2022-12-13T04:53:11;7.10;;;5.33;;
14241;SDS011;7205;50.864;12.766;2022-12-13T04:55:39;5.30;;;4.37;;
14241;SDS011;7205;50.864;12.766;2022-12-13T04:58:06;6.43;;;5.03;;
14241;SDS011;7205;50.864;12.766;2022-12-13T05:00:34;7.53;;;5.40;;
14241;SDS011;7205;50.864;12.766;2022-12-13T05:03:01;9.13;;;5.33;;
14241;SDS011;7205;50.864;12.766;2022-12-13T05:05:28;5.50;;;4.47;;
14241;SDS011;7205;50.864;12.766;2022-12-13T05:07:55;5.27;;;4.60;;
14241;SDS011;7205;50.864;12.766;2022-12-13T05:10:22;5.53;;;4.40;;
14241;SDS011;7205;50.864;12.766;2022-12-13T05:12:48;6.33;;;4.87;;
14241;SDS011;7205;50.864;12.766;2022-12-13T05:15:15;6.47;;;5.00;;
14241;SDS011;7205;50.864;12.766;2022-12-13T05:17:43;7.53;;;4.50;;
14241;SDS011;7205;50.864;12.766;2022-12-13T05:20:10;4.70;;;4.10;;
14241;SDS011;7205;50.864;12.766;2022-12-13T05:22:37;6.40;;;4.77;;
14241;SDS011;7205;50.864;12.766;2022-12-13T05:25:04;6.10;;;4.20;;
14241;SDS011;7205;50.864;12.766;2022-12-13T05:27:32;7.23;;;4.70;;
14241;SDS011;7205;50.864;12.766;2022-12-13T05:29:59;4.83;;;4.20;;
14241;SDS011;7205;50.864;12.766;2022-12-13T05:32:26;8.97;;;5.43;;
14241;SDS011;7205;50.864;12.766;2022-12-13T05:34:54;5.87;;;3.90;;
14241;SDS011;7205;50.864;12.766;2022-12-13T05:37:21;6.27;;;4.53;;
14241;SDS011;7205;50.864;12.766;2022-12-13T05:39:48;4.23;;;3.40;;
14241;SDS011;7205;50.864;12.766;2022-12-13T05:42:15;4.80;;;4.03;;
14241;SDS011;7205;50.864;12.766;2022-12-13T05:44:41;5.13;;;4.20;;
14241;SDS011;7205;50.864;12.766;2022-12-13T05:47:08;5.33;;;4.00;;
14241;SDS011;7205;50.864;12.766;2022-12-13T05:49:35;6.47;;;4.90;;
14241;SDS011;7205;50.864;12.766;2022-12-13T05:52:03;5.43;;;4.43;;
14241;SDS011;7205;50.864;12.766;2022-12-13T05:54:30;8.10;;;4.63;;
14241;SDS011;7205;50.864;12.766;2022-12-13T05:56:57;5.77;;;4.53;;
14241;SDS011;7205;50.864;12.766;2022-12-13T05:59:24;4.97;;;4.17;;
14241;SDS011;7205;50.864;12.766;2022-12-13T06:01:51;3.90;;;3.40;;
14241;SDS011;7205;50.864;12.766;2022-12-13T06:04:18;4.13;;;3.53;;
14241;SDS011;7205;50.864;12.766;2022-12-13T06:06:45;5.30;;;3.60;;
14241;SDS011;7205;50.864;12.766;2022-12-13T06:09:13;6.23;;;4.27;;
14241;SDS011;7205;50.864;12.766;2022-12-13T06:11:40;7.07;;;4.47;;
14241;SDS011;7205;50.864;12.766;2022-12-13T06:14:07;4.40;;;3.87;;
14241;SDS011;7205;50.864;12.766;2022-12-13T06:16:34;5.00;;;3.90;;
14241;SDS011;7205;50.864;12.766;2022-12-13T06:19:01;4.87;;;4.07;;
14241;SDS011;7205;50.864;12.766;2022-12-13T06:21:28;5.77;;;4.13;;
14241;SDS011;7205;50.864;12.766;2022-12-13T06:23:55;6.80;;;4.67;;
14241;SDS011;7205;50.864;12.766;2022-12-13T06:26:23;5.67;;;4.43;;
14241;SDS011;7205;50.864;12.766;2022-12-13T06:28:50;5.67;;;4.53;;
14241;SDS011;7205;50.864;12.766;2022-12-13T06:31:16;5.60;;;4.53;;
14241;SDS011;7205;50.864;12.766;2022-12-13T06:33:43;5.20;;;4.67;;
14241;SDS011;7205;50.864;12.766;2022-12-13T06:36:10;7.93;;;4.43;;
14241;SDS011;7205;50.864;12.766;2022-12-13T06:38:37;4.63;;;4.17;;
14241;SDS011;7205;50.864;12.766;2022-12-13T06:41:08;6.03;;;4.50;;
14241;SDS011;7205;50.864;12.766;2022-12-13T06:43:37;8.00;;;4.60;;
14241;SDS011;7205;50.864;12.766;2022-12-13T06:46:08;7.37;;;4.63;;
14241;SDS011;7205;50.864;12.766;2022-12-13T06:48:35;6.37;;;4.37;;
14241;SDS011;7205;50.864;12.766;2022-12-13T06:51:05;6.07;;;4.27;;
14241;SDS011;7205;50.864;12.766;2022-12-13T06:53:33;8.97;;;4.80;;
14241;SDS011;7205;50.864;12.766;2022-12-13T06:56:02;7.47;;;5.07;;
14241;SDS011;7205;50.864;12.766;2022-12-13T06:58:30;7.27;;;5.40;;
14241;SDS011;7205;50.864;12.766;2022-12-13T07:01:01;6.97;;;5.33;;
14241;SDS011;7205;50.864;12.766;2022-12-13T07:03:28;10.17;;;5.73;;
14241;SDS011;7205;50.864;12.766;2022-12-13T07:05:56;6.20;;;4.73;;
14241;SDS011;7205;50.864;12.766;2022-12-13T07:08:24;8.90;;;5.53;;
14241;SDS011;7205;50.864;12.766;2022-12-13T07:10:51;6.50;;;4.60;;
14241;SDS011;7205;50.864;12.766;2022-12-13T07:13:19;5.73;;;4.40;;
14241;SDS011;7205;50.864;12.766;2022-12-13T07:15:46;7.13;;;4.57;;
14241;SDS011;7205;50.864;12.766;2022-12-13T07:18:16;6.43;;;4.67;;
14241;SDS011;7205;50.864;12.766;2022-12-13T07:20:44;7.63;;;5.43;;
14241;SDS011;7205;50.864;12.766;2022-12-13T07:23:11;6.07;;;4.40;;
14241;SDS011;7205;50.864;12.766;2022-12-13T07:25:38;10.70;;;6.13;;
14241;SDS011;7205;50.864;12.766;2022-12-13T07:28:06;9.67;;;6.50;;
14241;SDS011;7205;50.864;12.766;2022-12-13T07:30:35;6.83;;;4.50;;
14241;SDS011;7205;50.864;12.766;2022-12-13T07:33:03;8.33;;;5.43;;
14241;SDS011;7205;50.864;12.766;2022-12-13T07:35:32;10.10;;;6.20;;
14241;SDS011;7205;50.864;12.766;2022-12-13T07:37:59;15.37;;;7.17;;
14241;SDS011;7205;50.864;12.766;2022-12-13T07:40:26;14.27;;;7.43;;
14241;SDS011;7205;50.864;12.766;2022-12-13T07:42:54;14.30;;;7.43;;
14241;SDS011;7205;50.864;12.766;2022-12-13T07:45:23;15.20;;;9.83;;
14241;SDS011;7205;50.864;12.766;2022-12-13T07:47:50;17.73;;;11.30;;
14241;SDS011;7205;50.864;12.766;2022-12-13T07:50:17;19.60;;;11.63;;
14241;SDS011;7205;50.864;12.766;2022-12-13T07:52:46;16.93;;;10.77;;
14241;SDS011;7205;50.864;12.766;2022-12-13T07:55:13;15.80;;;8.97;;
14241;SDS011;7205;50.864;12.766;2022-12-13T07:57:41;12.03;;;8.33;;
14241;SDS011;7205;50.864;12.766;2022-12-13T08:00:09;25.97;;;15.77;;
14241;SDS011;7205;50.864;12.766;2022-12-13T08:02:40;29.43;;;17.60;;
14241;SDS011;7205;50.864;12.766;2022-12-13T08:05:07;29.57;;;18.50;;
14241;SDS011;7205;50.864;12.766;2022-12-13T08:07:34;26.33;;;16.67;;
14241;SDS011;7205;50.864;12.766;2022-12-13T08:10:03;25.63;;;16.67;;
14241;SDS011;7205;50.864;12.766;2022-12-13T08:12:30;25.30;;;14.87;;
14241;SDS011;7205;50.864;12.766;2022-12-13T08:14:57;26.80;;;16.60;;
14241;SDS011;7205;50.864;12.766;2022-12-13T08:17:25;29.93;;;15.90;;
14241;SDS011;7205;50.864;12.766;2022-12-13T08:19:52;27.80;;;18.13;;
14241;SDS011;7205;50.864;12.766;2022-12-13T08:22:19;29.93;;;18.53;;
14241;SDS011;7205;50.864;12.766;2022-12-13T08:24:46;26.07;;;16.63;;
14241;SDS011;7205;50.864;12.766;2022-12-13T08:27:14;21.00;;;12.70;;
14241;SDS011;7205;50.864;12.766;2022-12-13T08:29:40;30.37;;;19.63;;
14241;SDS011;7205;50.864;12.766;2022-12-13T08:32:08;29.27;;;18.30;;
14241;SDS011;7205;50.864;12.766;2022-12-13T08:34:37;18.23;;;9.83;;
14241;SDS011;7205;50.864;12.766;2022-12-13T08:37:05;16.53;;;10.47;;
14241;SDS011;7205;50.864;12.766;2022-12-13T08:39:32;37.07;;;21.30;;
14241;SDS011;7205;50.864;12.766;2022-12-13T08:42:01;25.30;;;16.17;;
14241;SDS011;7205;50.864;12.766;2022-12-13T08:44:30;22.77;;;14.07;;
14241;SDS011;7205;50.864;12.766;2022-12-13T08:46:58;24.37;;;13.60;;
14241;SDS011;7205;50.864;12.766;2022-12-13T08:49:25;23.13;;;13.57;;
14241;SDS011;7205;50.864;12.766;2022-12-13T08:51:51;17.63;;;10.43;;
14241;SDS011;7205;50.864;12.766;2022-12-13T08:54:18;21.60;;;14.13;;
14241;SDS011;7205;50.864;12.766;2022-12-13T08:56:45;25.67;;;17.53;;
14241;SDS011;7205;50.864;12.766;2022-12-13T08:59:12;35.30;;;21.20;;
14241;SDS011;7205;50.864;12.766;2022-12-13T09:01:40;32.53;;;20.23;;
14241;SDS011;7205;50.864;12.766;2022-12-13T09:04:07;30.73;;;20.20;;
14241;SDS011;7205;50.864;12.766;2022-12-13T09:06:33;22.37;;;15.63;;
14241;SDS011;7205;50.864;12.766;2022-12-13T09:09:02;29.40;;;18.73;;
14241;SDS011;7205;50.864;12.766;2022-12-13T09:11:29;32.63;;;21.17;;
14241;SDS011;7205;50.864;12.766;2022-12-13T09:13:56;34.00;;;21.00;;
14241;SDS011;7205;50.864;12.766;2022-12-13T09:16:22;33.93;;;19.87;;
14241;SDS011;7205;50.864;12.766;2022-12-13T09:18:51;28.00;;;17.23;;
14241;SDS011;7205;50.864;12.766;2022-12-13T09:21:18;27.20;;;18.13;;
14241;SDS011;7205;50.864;12.766;2022-12-13T09:23:45;24.10;;;16.63;;
14241;SDS011;7205;50.864;12.766;2022-12-13T09:26:13;29.67;;;17.50;;
14241;SDS011;7205;50.864;12.766;2022-12-13T09:28:41;27.73;;;18.17;;
14241;SDS011;7205;50.864;12.766;2022-12-13T09:31:08;26.63;;;17.37;;
14241;SDS011;7205;50.864;12.766;2022-12-13T09:33:35;26.50;;;16.63;;
14241;SDS011;7205;50.864;12.766;2022-12-13T09:36:04;24.47;;;15.33;;
14241;SDS011;7205;50.864;12.766;2022-12-13T09:38:33;24.17;;;13.97;;
14241;SDS011;7205;50.864;12.766;2022-12-13T09:41:04;26.20;;;17.03;;
14241;SDS011;7205;50.864;12.766;2022-12-13T09:43:38;18.73;;;12.53;;
14241;SDS011;7205;50.864;12.766;2022-12-13T09:46:07;14.37;;;11.07;;
14241;SDS011;7205;50.864;12.766;2022-12-13T09:48:44;15.07;;;10.83;;
14241;SDS011;7205;50.864;12.766;2022-12-13T09:51:13;12.67;;;9.43;;
14241;SDS011;7205;50.864;12.766;2022-12-13T09:53:39;23.60;;;13.57;;
14241;SDS011;7205;50.864;12.766;2022-12-13T09:56:08;17.37;;;10.90;;
14241;SDS011;7205;50.864;12.766;2022-12-13T09:58:37;13.10;;;9.57;;
14241;SDS011;7205;50.864;12.766;2022-12-13T10:01:04;11.80;;;8.27;;
14241;SDS011;7205;50.864;12.766;2022-12-13T10:03:31;12.50;;;7.07;;
14241;SDS011;7205;50.864;12.766;2022-12-13T10:05:59;15.23;;;11.10;;
14241;SDS011;7205;50.864;12.766;2022-12-13T10:08:35;14.53;;;10.97;;
14241;SDS011;7205;50.864;12.766;2022-12-13T10:11:05;16.93;;;10.97;;
14241;SDS011;7205;50.864;12.766;2022-12-13T10:13:34;16.23;;;10.40;;
14241;SDS011;7205;50.864;12.766;2022-12-13T10:16:07;15.60;;;10.47;;
14241;SDS011;7205;50.864;12.766;2022-12-13T10:18:39;17.33;;;10.70;;
14241;SDS011;7205;50.864;12.766;2022-12-13T10:21:08;14.77;;;10.27;;
14241;SDS011;7205;50.864;12.766;2022-12-13T10:23:40;15.80;;;9.67;;
14241;SDS011;7205;50.864;12.766;2022-12-13T10:26:07;19.83;;;12.30;;
14241;SDS011;7205;50.864;12.766;2022-12-13T10:28:36;13.37;;;9.17;;
14241;SDS011;7205;50.864;12.766;2022-12-13T10:31:03;14.97;;;8.70;;
14241;SDS011;7205;50.864;12.766;2022-12-13T10:33:32;12.67;;;8.73;;
14241;SDS011;7205;50.864;12.766;2022-12-13T10:36:03;12.83;;;8.73;;
14241;SDS011;7205;50.864;12.766;2022-12-13T10:38:34;13.93;;;9.17;;
14241;SDS011;7205;50.864;12.766;2022-12-13T10:41:03;18.13;;;10.47;;
14241;SDS011;7205;50.864;12.766;2022-12-13T10:44:05;10.47;;;6.17;;
14241;SDS011;7205;50.864;12.766;2022-12-13T10:46:46;8.27;;;6.27;;
14241;SDS011;7205;50.864;12.766;2022-12-13T10:49:16;5.93;;;5.33;;
14241;SDS011;7205;50.864;12.766;2022-12-13T10:51:45;6.10;;;5.43;;
14241;SDS011;7205;50.864;12.766;2022-12-13T10:54:14;7.13;;;5.53;;
14241;SDS011;7205;50.864;12.766;2022-12-13T10:56:46;8.43;;;6.80;;
14241;SDS011;7205;50.864;12.766;2022-12-13T10:59:25;7.70;;;6.00;;
14241;SDS011;7205;50.864;12.766;2022-12-13T11:01:56;17.47;;;11.97;;
14241;SDS011;7205;50.864;12.766;2022-12-13T11:04:26;12.57;;;8.03;;
14241;SDS011;7205;50.864;12.766;2022-12-13T11:06:56;9.57;;;7.80;;
14241;SDS011;7205;50.864;12.766;2022-12-13T11:09:26;14.13;;;10.00;;
14241;SDS011;7205;50.864;12.766;2022-12-13T11:11:56;9.37;;;7.53;;
14241;SDS011;7205;50.864;12.766;2022-12-13T11:14:27;11.50;;;8.63;;
14241;SDS011;7205;50.864;12.766;2022-12-13T11:16:58;10.03;;;6.37;;
14241;SDS011;7205;50.864;12.766;2022-12-13T11:19:32;6.67;;;5.93;;
14241;SDS011;7205;50.864;12.766;2022-12-13T11:22:04;13.23;;;7.10;;
14241;SDS011;7205;50.864;12.766;2022-12-13T11:24:33;9.33;;;6.57;;
14241;SDS011;7205;50.864;12.766;2022-12-13T11:27:07;9.10;;;6.97;;
14241;SDS011;7205;50.864;12.766;2022-12-13T11:29:55;8.70;;;6.37;;
14241;SDS011;7205;50.864;12.766;2022-12-13T11:32:47;6.20;;;5.40;;
14241;SDS011;7205;50.864;12.766;2022-12-13T11:35:29;6.53;;;5.80;;
14241;SDS011;7205;50.864;12.766;2022-12-13T11:38:04;6.70;;;6.00;;
14241;SDS011;7205;50.864;12.766;2022-12-13T11:40:42;8.03;;;5.90;;
14241;SDS011;7205;50.864;12.766;2022-12-13T11:43:15;8.10;;;5.87;;
14241;SDS011;7205;50.864;12.766;2022-12-13T11:45:50;7.43;;;5.97;;
14241;SDS011;7205;50.864;12.766;2022-12-13T11:48:21;8.90;;;6.17;;
14241;SDS011;7205;50.864;12.766;2022-12-13T11:50:53;9.57;;;7.13;;
14241;SDS011;7205;50.864;12.766;2022-12-13T11:53:25;8.90;;;6.97;;
14241;SDS011;7205;50.864;12.766;2022-12-13T11:55:57;8.00;;;6.50;;
14241;SDS011;7205;50.864;12.766;2022-12-13T11:58:33;8.30;;;5.80;;
14241;SDS011;7205;50.864;12.766;2022-12-13T12:01:07;9.00;;;5.50;;
14241;SDS011;7205;50.864;12.766;2022-12-13T12:03:39;7.33;;;5.73;;
14241;SDS011;7205;50.864;12.766;2022-12-13T12:06:11;7.70;;;5.53;;
14241;SDS011;7205;50.864;12.766;2022-12-13T12:08:43;7.60;;;5.47;;
14241;SDS011;7205;50.864;12.766;2022-12-13T12:11:13;7.60;;;5.50;;
14241;SDS011;7205;50.864;12.766;2022-12-13T12:13:48;6.53;;;5.27;;
14241;SDS011;7205;50.864;12.766;2022-12-13T12:16:21;7.53;;;5.93;;
14241;SDS011;7205;50.864;12.766;2022-12-13T12:18:54;6.37;;;5.20;;
14241;SDS011;7205;50.864;12.766;2022-12-13T12:21:24;7.00;;;4.97;;
14241;SDS011;7205;50.864;12.766;2022-12-13T12:24:03;8.07;;;5.17;;
14241;SDS011;7205;50.864;12.766;2022-12-13T12:26:41;6.53;;;5.63;;
14241;SDS011;7205;50.864;12.766;2022-12-13T12:29:26;6.70;;;5.50;;
14241;SDS011;7205;50.864;12.766;2022-12-13T12:32:06;5.57;;;4.93;;
14241;SDS011;7205;50.864;12.766;2022-12-13T12:34:45;6.37;;;5.23;;
14241;SDS011;7205;50.864;12.766;2022-12-13T12:37:20;6.37;;;5.10;;
14241;SDS011;7205;50.864;12.766;2022-12-13T12:40:01;6.90;;;5.53;;
14241;SDS011;7205;50.864;12.766;2022-12-13T12:42:57;6.63;;;5.27;;
14241;SDS011;7205;50.864;12.766;2022-12-13T12:45:37;6.20;;;5.43;;
14241;SDS011;7205;50.864;12.766;2022-12-13T12:48:20;6.57;;;5.07;;
14241;SDS011;7205;50.864;12.766;2022-12-13T12:51:00;7.17;;;5.80;;
14241;SDS011;7205;50.864;12.766;2022-12-13T12:53:35;7.00;;;5.53;;
14241;SDS011;7205;50.864;12.766;2022-12-13T12:56:11;6.77;;;5.13;;
14241;SDS011;7205;50.864;12.766;2022-12-13T12:58:50;6.83;;;5.53;;
14241;SDS011;7205;50.864;12.766;2022-12-13T13:01:30;6.30;;;5.43;;
14241;SDS011;7205;50.864;12.766;2022-12-13T13:04:07;8.63;;;5.80;;
14241;SDS011;7205;50.864;12.766;2022-12-13T13:06:38;6.07;;;4.63;;
14241;SDS011;7205;50.864;12.766;2022-12-13T13:09:07;6.77;;;5.20;;
14241;SDS011;7205;50.864;12.766;2022-12-13T13:11:37;5.83;;;4.90;;
14241;SDS011;7205;50.864;12.766;2022-12-13T13:16:59;8.23;;;5.37;;
14241;SDS011;7205;50.864;12.766;2022-12-13T13:19:47;6.77;;;5.40;;
14241;SDS011;7205;50.864;12.766;2022-12-13T13:22:25;6.20;;;5.37;;
14241;SDS011;7205;50.864;12.766;2022-12-13T13:28:03;13.43;;;8.43;;
14241;SDS011;7205;50.864;12.766;2022-12-13T13:30:32;6.27;;;4.73;;
14241;SDS011;7205;50.864;12.766;2022-12-13T13:33:02;6.07;;;4.93;;
14241;SDS011;7205;50.864;12.766;2022-12-13T13:41:37;6.27;;;4.80;;
14241;SDS011;7205;50.864;12.766;2022-12-13T13:47:08;6.33;;;5.40;;
14241;SDS011;7205;50.864;12.766;2022-12-13T13:49:40;8.73;;;5.53;;
14241;SDS011;7205;50.864;12.766;2022-12-13T13:52:16;7.73;;;5.80;;
14241;SDS011;7205;50.864;12.766;2022-12-13T14:01:03;7.23;;;5.80;;
14241;SDS011;7205;50.864;12.766;2022-12-13T14:04:07;9.53;;;6.50;;
14241;SDS011;7205;50.864;12.766;2022-12-13T14:06:57;9.13;;;6.70;;
14241;SDS011;7205;50.864;12.766;2022-12-13T14:09:42;8.93;;;5.97;;
14241;SDS011;7205;50.864;12.766;2022-12-13T14:12:26;7.60;;;6.23;;
14241;SDS011;7205;50.864;12.766;2022-12-13T14:21:48;11.03;;;6.73;;
14241;SDS011;7205;50.864;12.766;2022-12-13T14:24:35;16.13;;;6.73;;
14241;SDS011;7205;50.864;12.766;2022-12-13T14:27:12;11.50;;;6.93;;
14241;SDS011;7205;50.864;12.766;2022-12-13T14:29:45;10.17;;;7.20;;
14241;SDS011;7205;50.864;12.766;2022-12-13T14:32:18;12.47;;;8.40;;
14241;SDS011;7205;50.864;12.766;2022-12-13T14:34:47;11.23;;;8.27;;
14241;SDS011;7205;50.864;12.766;2022-12-13T14:37:20;11.37;;;8.13;;
14241;SDS011;7205;50.864;12.766;2022-12-13T14:39:51;14.10;;;9.67;;
14241;SDS011;7205;50.864;12.766;2022-12-13T14:42:22;13.60;;;9.67;;
14241;SDS011;7205;50.864;12.766;2022-12-13T14:44:51;13.17;;;9.57;;
14241;SDS011;7205;50.864;12.766;2022-12-13T14:47:18;15.23;;;9.57;;
14241;SDS011;7205;50.864;12.766;2022-12-13T14:49:48;15.90;;;9.93;;
14241;SDS011;7205;50.864;12.766;2022-12-13T14:52:21;16.97;;;10.03;;
14241;SDS011;7205;50.864;12.766;2022-12-13T14:54:51;13.53;;;9.73;;
14241;SDS011;7205;50.864;12.766;2022-12-13T14:57:21;12.97;;;9.47;;
14241;SDS011;7205;50.864;12.766;2022-12-13T14:59:51;16.57;;;9.13;;
14241;SDS011;7205;50.864;12.766;2022-12-13T15:02:20;16.47;;;9.20;;
14241;SDS011;7205;50.864;12.766;2022-12-13T15:04:51;21.23;;;11.13;;
14241;SDS011;7205;50.864;12.766;2022-12-13T15:07:22;18.87;;;10.17;;
14241;SDS011;7205;50.864;12.766;2022-12-13T15:09:53;14.13;;;10.00;;
14241;SDS011;7205;50.864;12.766;2022-12-13T15:12:22;17.10;;;10.23;;
14241;SDS011;7205;50.864;12.766;2022-12-13T15:14:52;14.80;;;10.40;;
14241;SDS011;7205;50.864;12.766;2022-12-13T15:17:25;17.83;;;10.77;;
14241;SDS011;7205;50.864;12.766;2022-12-13T15:19:56;16.50;;;10.70;;
14241;SDS011;7205;50.864;12.766;2022-12-13T15:22:26;15.07;;;10.03;;
14241;SDS011;7205;50.864;12.766;2022-12-13T15:24:54;14.67;;;10.47;;
14241;SDS011;7205;50.864;12.766;2022-12-13T15:27:27;14.80;;;9.87;;
14241;SDS011;7205;50.864;12.766;2022-12-13T15:29:54;15.87;;;10.17;;